createdAt,value
2023-01-17T00:02:03.810Z,84.80
2023-01-17T00:07:44.095Z,84.82
2023-01-17T00:13:04.516Z,84.52
2023-01-17T00:18:24.932Z,84.80
2023-01-17T00:24:04.179Z,84.67
2023-01-17T00:29:24.482Z,84.61
2023-01-17T00:34:44.769Z,84.69
2023-01-17T00:40:06.741Z,84.64
2023-01-17T00:45:46.098Z,84.64
2023-01-17T00:51:25.257Z,84.82
2023-01-17T00:57:04.620Z,84.83
2023-01-17T01:02:45.106Z,84.39
2023-01-17T01:08:44.248Z,84.64
2023-01-17T01:14:24.682Z,84.77
2023-01-17T01:20:03.954Z,85.11
2023-01-17T01:25:42.788Z,85.05
2023-01-17T01:31:23.196Z,84.98
2023-01-17T01:36:43.976Z,85.04
2023-01-17T01:42:10.518Z,85.06
2023-01-17T01:47:35.414Z,85.00
2023-01-17T01:53:00.839Z,84.87
2023-01-17T01:58:25.334Z,84.97
2023-01-17T02:03:47.050Z,84.85
2023-01-17T02:09:10.983Z,84.77
2023-01-17T02:14:32.024Z,84.63
2023-01-17T02:20:20.135Z,84.71
2023-01-17T02:26:04.536Z,84.60
2023-01-17T02:31:37.388Z,84.61
2023-01-17T02:37:02.936Z,84.52
2023-01-17T02:42:34.908Z,84.36
2023-01-17T02:47:55.669Z,84.46
2023-01-17T02:53:44.184Z,84.38
2023-01-17T02:59:13.362Z,84.63
2023-01-17T03:04:48.181Z,84.51
2023-01-17T03:10:11.027Z,84.65
2023-01-17T03:15:31.573Z,84.40
2023-01-17T03:20:52.396Z,84.25
2023-01-17T03:26:12.815Z,84.47
2023-01-17T03:31:33.280Z,84.30
2023-01-17T03:36:53.313Z,84.51
2023-01-17T03:42:13.767Z,84.42
2023-01-17T03:47:35.073Z,84.17
2023-01-17T03:52:55.750Z,84.12
2023-01-17T03:58:16.516Z,83.90
2023-01-17T04:03:37.355Z,84.10
2023-01-17T04:08:57.831Z,84.04
2023-01-17T04:14:18.623Z,83.66
2023-01-17T04:19:39.218Z,83.39
2023-01-17T04:24:59.689Z,83.34
2023-01-17T04:30:20.632Z,83.44
2023-01-17T04:35:41.324Z,84.04
2023-01-17T04:41:02.165Z,84.73
2023-01-17T04:46:22.709Z,85.31
2023-01-17T04:51:43.487Z,85.34
2023-01-17T04:57:04.085Z,85.72
2023-01-17T05:02:24.597Z,85.79
2023-01-17T05:07:52.326Z,85.90
2023-01-17T05:13:12.843Z,85.90
2023-01-17T05:18:33.333Z,85.68
2023-01-17T05:23:53.917Z,85.52
2023-01-17T05:29:14.561Z,85.48
2023-01-17T05:34:35.073Z,85.60
2023-01-17T05:39:55.831Z,85.73
2023-01-17T05:45:17.760Z,85.52
2023-01-17T05:50:38.671Z,85.58
2023-01-17T05:55:59.141Z,85.70
2023-01-17T06:01:23.811Z,85.48
2023-01-17T06:06:46.833Z,85.59
2023-01-17T06:12:08.797Z,85.76
2023-01-17T06:17:29.248Z,85.81
2023-01-17T06:22:50.189Z,85.76
2023-01-17T06:28:12.396Z,85.46
2023-01-17T06:33:33.176Z,85.48
2023-01-17T06:38:53.862Z,85.35
2023-01-17T06:44:14.403Z,85.30
2023-01-17T06:49:35.105Z,85.37
2023-01-17T06:54:56.209Z,85.26
2023-01-17T07:00:17.363Z,85.17
2023-01-17T07:05:37.976Z,85.13
2023-01-17T07:11:01.499Z,84.90
2023-01-17T07:16:21.888Z,84.46
2023-01-17T07:21:42.461Z,84.45
2023-01-17T07:27:03.548Z,84.31
2023-01-17T07:32:26.501Z,84.41
2023-01-17T07:37:50.964Z,84.19
2023-01-17T07:43:14.864Z,83.97
2023-01-17T07:48:35.756Z,83.60
2023-01-17T07:53:56.490Z,83.51
2023-01-17T07:59:18.029Z,82.76
2023-01-17T08:04:38.810Z,82.76
2023-01-17T08:10:00.745Z,82.97
2023-01-17T08:15:21.722Z,82.66
2023-01-17T08:20:45.356Z,81.87
2023-01-17T08:26:06.129Z,81.12
2023-01-17T08:31:31.342Z,80.24
2023-01-17T08:36:52.820Z,79.28
2023-01-17T08:42:13.205Z,78.76
2023-01-17T08:47:34.528Z,78.07
2023-01-17T08:53:01.128Z,77.29
2023-01-17T08:58:22.631Z,77.11
2023-01-17T09:03:43.525Z,77.12
2023-01-17T09:09:05.214Z,77.08
2023-01-17T09:14:25.618Z,76.80
2023-01-17T09:19:49.179Z,76.57
2023-01-17T09:25:10.096Z,76.09
2023-01-17T09:30:30.415Z,76.08
2023-01-17T09:35:50.957Z,76.72
2023-01-17T09:41:28.854Z,77.13
2023-01-17T09:46:54.310Z,77.12
2023-01-17T09:52:18.880Z,76.72
2023-01-17T09:57:57.570Z,76.15
2023-01-17T10:03:41.797Z,75.94
2023-01-17T10:09:29.609Z,76.54
2023-01-17T10:15:32.228Z,76.13
2023-01-17T10:21:03.502Z,75.71
2023-01-17T10:26:25.464Z,75.21
2023-01-17T10:31:55.703Z,74.58
2023-01-17T10:37:19.359Z,73.77
2023-01-17T10:43:22.617Z,72.14
2023-01-17T10:48:45.985Z,71.87
2023-01-17T10:54:28.207Z,72.79
2023-01-17T10:59:49.627Z,72.15
2023-01-17T11:05:28.725Z,71.01
2023-01-17T11:10:54.172Z,71.83
2023-01-17T11:16:23.034Z,72.99
2023-01-17T11:21:55.942Z,72.62
2023-01-17T11:27:28.223Z,69.31
2023-01-17T11:32:53.975Z,68.98
2023-01-17T11:38:22.031Z,67.83
2023-01-17T11:43:56.548Z,70.67
2023-01-17T11:49:25.529Z,71.00
2023-01-17T11:54:48.324Z,70.87
2023-01-17T12:00:08.800Z,68.51
2023-01-17T12:05:53.499Z,70.52
2023-01-17T12:11:22.651Z,71.76
2023-01-17T12:16:59.747Z,71.98
2023-01-17T12:22:40.767Z,70.34
2023-01-17T12:28:29.014Z,72.52
2023-01-17T12:34:01.322Z,72.96
2023-01-17T12:39:28.883Z,72.39
2023-01-17T12:44:50.042Z,69.57
2023-01-17T12:51:02.647Z,68.63
2023-01-17T12:56:44.478Z,67.45
2023-01-17T13:02:22.686Z,65.16
2023-01-17T13:07:55.151Z,65.10
2023-01-17T13:13:22.304Z,66.28
2023-01-17T13:18:46.273Z,67.69
2023-01-17T13:24:17.871Z,69.41
2023-01-17T13:29:47.576Z,71.69
2023-01-17T13:35:42.022Z,73.84
2023-01-17T13:41:08.507Z,75.71
2023-01-17T13:46:51.965Z,77.02
2023-01-17T13:52:18.391Z,77.42
2023-01-17T13:57:43.537Z,77.15
2023-01-17T14:03:04.962Z,78.04
2023-01-17T14:08:27.198Z,78.63
2023-01-17T14:13:49.637Z,78.95
2023-01-17T14:19:25.966Z,79.06
2023-01-17T14:25:00.277Z,78.36
2023-01-17T14:30:28.379Z,78.62
2023-01-17T14:35:52.720Z,79.03
2023-01-17T14:41:19.064Z,78.52
2023-01-17T14:46:39.608Z,78.20
2023-01-17T14:52:04.774Z,78.54
2023-01-17T14:57:28.196Z,78.79
2023-01-17T15:02:50.589Z,78.42
2023-01-17T15:08:17.450Z,78.37
2023-01-17T15:13:47.396Z,79.35
2023-01-17T15:19:13.025Z,79.26
2023-01-17T15:24:40.988Z,79.43
2023-01-17T15:30:03.980Z,79.26
2023-01-17T15:35:25.221Z,79.46
2023-01-17T15:40:46.605Z,79.38
2023-01-17T15:46:07.329Z,79.42
2023-01-17T15:51:38.610Z,79.21
2023-01-17T15:57:18.026Z,79.85
2023-01-17T16:02:43.729Z,79.57
2023-01-17T16:08:04.558Z,79.64
2023-01-17T16:13:24.941Z,79.61
2023-01-17T16:18:46.716Z,79.79
2023-01-17T16:24:09.644Z,79.44
2023-01-17T16:29:30.230Z,79.25
2023-01-17T16:34:51.035Z,79.47
2023-01-17T16:40:12.291Z,79.52
2023-01-17T16:45:40.981Z,79.03
2023-01-17T16:51:05.757Z,78.90
2023-01-17T16:56:26.281Z,79.18
2023-01-17T17:01:48.431Z,79.46
2023-01-17T17:07:09.196Z,79.53
2023-01-17T17:12:29.944Z,79.38
2023-01-17T17:17:51.077Z,79.74
2023-01-17T17:23:12.457Z,79.60
2023-01-17T17:28:33.162Z,79.47
2023-01-17T17:33:58.874Z,79.63
2023-01-17T17:39:19.664Z,79.61
2023-01-17T17:44:40.446Z,79.85
2023-01-17T17:50:00.907Z,80.13
2023-01-17T17:55:21.893Z,80.01
2023-01-17T18:00:42.608Z,80.12
2023-01-17T18:06:06.232Z,80.13
2023-01-17T18:11:27.908Z,80.08
2023-01-17T18:16:48.564Z,79.97
2023-01-17T18:22:09.176Z,80.01
2023-01-17T18:27:29.847Z,79.82
2023-01-17T18:32:51.120Z,79.32
2023-01-17T18:38:11.840Z,79.55
2023-01-17T18:43:32.797Z,79.80
2023-01-17T18:48:56.983Z,79.96
2023-01-17T18:54:19.456Z,80.14
2023-01-17T18:59:40.144Z,80.23
2023-01-17T19:05:05.461Z,80.16
2023-01-17T19:10:25.871Z,79.92
2023-01-17T19:15:46.333Z,80.02
2023-01-17T19:21:12.751Z,79.90
2023-01-17T19:26:34.137Z,79.79
2023-01-17T19:31:55.203Z,79.45
2023-01-17T19:37:15.830Z,79.13
2023-01-17T19:42:36.729Z,79.10
2023-01-17T19:47:58.234Z,79.36
2023-01-17T19:53:19.218Z,79.58
2023-01-17T19:58:40.957Z,79.56
2023-01-17T20:04:02.826Z,79.86
2023-01-17T20:09:25.028Z,80.36
2023-01-17T20:14:45.813Z,80.22
2023-01-17T20:20:07.493Z,80.09
2023-01-17T20:25:28.318Z,80.15
2023-01-17T20:30:49.237Z,80.45
2023-01-17T20:36:12.703Z,80.39
2023-01-17T20:41:36.683Z,80.32
2023-01-17T20:46:57.556Z,80.08
2023-01-17T20:52:18.262Z,79.96
2023-01-17T20:57:39.248Z,80.05
2023-01-17T21:03:00.508Z,80.35
2023-01-17T21:08:21.429Z,80.80
2023-01-17T21:13:43.000Z,80.47
2023-01-17T21:19:04.065Z,80.84
2023-01-17T21:24:24.639Z,81.11
2023-01-17T21:29:45.773Z,81.32
2023-01-17T21:35:07.755Z,81.15
2023-01-17T21:40:28.581Z,80.71
2023-01-17T21:45:51.050Z,80.44
2023-01-17T21:51:11.712Z,80.36
2023-01-17T21:56:51.207Z,80.46
2023-01-17T22:02:11.671Z,80.66
2023-01-17T22:07:33.338Z,80.66
2023-01-17T22:12:54.011Z,80.96
2023-01-17T22:18:15.219Z,81.03
2023-01-17T22:23:36.501Z,80.97
2023-01-17T22:29:00.934Z,81.79
2023-01-17T22:34:22.768Z,81.61
2023-01-17T22:39:43.558Z,81.91
2023-01-17T22:45:06.794Z,81.85
2023-01-17T22:50:27.292Z,81.60
2023-01-17T22:55:47.865Z,81.88
2023-01-17T23:01:14.034Z,82.38
2023-01-17T23:06:37.645Z,82.29
2023-01-17T23:11:58.562Z,81.86
2023-01-17T23:17:39.564Z,81.84
2023-01-17T23:23:00.331Z,81.78
2023-01-17T23:28:21.040Z,81.90
2023-01-17T23:33:41.563Z,81.94
2023-01-17T23:39:02.090Z,81.48
2023-01-17T23:44:23.202Z,81.29
2023-01-17T23:49:45.429Z,80.82
2023-01-17T23:55:06.521Z,80.97
